Clark, Texas
Current Conditions -  °F | °C
As of 12:35 PM on Sunday 21 Dec 2014 (Local Time) from K6R3 Reporting Station
Broken Clouds Broken Clouds  
Wind Chill: 14°   Ceiling: 2100
Heat Index: 14°   Visibility: 10mi
Dew Point: 10°   Wind: 0mph
Humidity: 74%   Direction: NA
Pressure: 30.06"   Gusts: NA
Location:  30.2945°N, 94.9711°W
Report Text: K6R3 211835Z AUTO 00000KT 10SM BKN021 14/10 A3006 RMK AO2 T01410095
Loading
Personal Weather Stations






























Interactive Weather Map New forecast layout! Learn more

10-Day Weather Forecast

Advertisements
Track Severe Weather on mobile